Phillips, Wisconsin
Current Conditions -  °F | °C
As of 8:35 AM on Thursday 30 Oct 2014 (Local Time) from KPBH Reporting Station
Overcast Overcast  
Wind Chill: 36°   Ceiling: 1900
Heat Index: 36°   Visibility: 10mi
Dew Point: 32°   Wind: 0mph
Humidity: 87%   Direction: NA
Pressure: 30.03"   Gusts: NA
Location:  45.69°N, 90.41°W
Report Text: KPBH 301335Z AUTO 00000KT 10SM OVC019 02/00 A3003 RMK AO2 T00200000
Loading
Personal Weather Stations






























Interactive Weather Map New forecast layout! Learn more

10-Day Weather Forecast

Advertisements
Track Severe Weather on mobile